Weather at Jorge Chávez International Airport

Public forecast

Using degrees Celsius for public forecast. Weather courtesy of forecast.io.

Current aviation weather report (METAR) for Jorge Chávez International Airport

Retrieved 2022/01/29 07:00 UTC (37 minutes ago):

SPJC 290700Z 16008KT CAVOK 20/16 Q1013 NOSIG RMK PP000

Closest aviation forecast (TAF) to Jorge Chávez International Airport

Retrieved 2022/01/29 06:37 UTC (60 minutes ago):

TAF SPJC 290500Z 2906/3006 17008KT 9999 SCT070 TX27/2919Z TN20/2911Z TEMPO 2909/2912 BKN008 OVC012 FM291700 18014KT CAVOK BECMG 3002/3004 18008KT